createdAt,value
2023-03-06T00:01:08.744Z,1.03
2023-03-06T00:03:36.721Z,1.60
2023-03-06T00:06:04.947Z,1.30
2023-03-06T00:08:32.790Z,1.53
2023-03-06T00:11:00.891Z,1.67
2023-03-06T00:13:31.129Z,1.30
2023-03-06T00:16:00.896Z,1.20
2023-03-06T00:18:28.778Z,1.33
2023-03-06T00:20:56.505Z,1.90
2023-03-06T00:23:24.509Z,1.07
2023-03-06T00:25:52.199Z,1.03
2023-03-06T00:28:19.955Z,1.20
2023-03-06T00:30:48.943Z,1.60
2023-03-06T00:33:16.641Z,1.60
2023-03-06T00:35:44.531Z,1.20
2023-03-06T00:38:13.014Z,1.53
2023-03-06T00:40:40.901Z,1.40
2023-03-06T00:43:08.639Z,1.80
2023-03-06T00:45:36.531Z,1.50
2023-03-06T00:48:06.406Z,1.50
2023-03-06T00:50:35.128Z,1.50
2023-03-06T00:53:02.855Z,1.63
2023-03-06T00:55:31.149Z,1.73
2023-03-06T00:57:58.862Z,1.60
2023-03-06T01:00:26.715Z,1.63
2023-03-06T01:02:54.490Z,1.40
2023-03-06T01:05:23.658Z,1.17
2023-03-06T01:07:51.340Z,2.17
2023-03-06T01:10:19.441Z,1.90
2023-03-06T01:12:47.083Z,1.33
2023-03-06T01:15:15.061Z,1.73
2023-03-06T01:17:45.383Z,2.43
2023-03-06T01:20:15.897Z,3.47
2023-03-06T01:22:45.268Z,2.23
2023-03-06T01:25:14.397Z,1.83
2023-03-06T01:27:42.257Z,2.03
2023-03-06T01:30:11.035Z,1.90
2023-03-06T01:32:38.726Z,1.87
2023-03-06T01:35:07.290Z,2.00
2023-03-06T01:37:36.179Z,2.20
2023-03-06T01:40:06.275Z,2.07
2023-03-06T01:42:33.990Z,2.23
2023-03-06T01:45:04.268Z,1.53
2023-03-06T01:47:33.230Z,2.60
2023-03-06T01:50:03.781Z,2.10
2023-03-06T01:52:37.037Z,2.20
2023-03-06T01:55:11.229Z,2.90
2023-03-06T01:57:44.711Z,2.67
2023-03-06T02:00:14.863Z,2.13
2023-03-06T02:02:51.207Z,3.03
2023-03-06T02:05:18.883Z,2.73
2023-03-06T02:07:48.100Z,1.90
2023-03-06T02:10:18.623Z,3.00
2023-03-06T02:12:47.755Z,3.13
2023-03-06T02:15:19.355Z,2.23
2023-03-06T02:17:49.619Z,2.43
2023-03-06T02:20:24.260Z,2.20
2023-03-06T02:22:58.613Z,2.37
2023-03-06T02:25:34.403Z,2.60
2023-03-06T02:28:02.328Z,2.60
2023-03-06T02:30:32.771Z,2.33
2023-03-06T02:33:00.743Z,2.13
2023-03-06T02:35:31.083Z,2.60
2023-03-06T02:37:59.801Z,2.00
2023-03-06T02:40:27.515Z,2.93
2023-03-06T02:42:58.164Z,2.47
2023-03-06T02:45:33.570Z,2.87
2023-03-06T02:48:01.372Z,2.63
2023-03-06T02:50:28.980Z,2.87
2023-03-06T02:52:56.796Z,3.70
2023-03-06T02:55:24.872Z,2.63
2023-03-06T02:57:52.711Z,2.87
2023-03-06T03:00:22.468Z,2.97
2023-03-06T03:02:50.172Z,2.40
2023-03-06T03:05:18.506Z,3.00
2023-03-06T03:07:46.459Z,2.67
2023-03-06T03:10:15.044Z,2.87
2023-03-06T03:12:43.402Z,3.50
2023-03-06T03:15:11.885Z,3.10
2023-03-06T03:17:42.048Z,2.70
2023-03-06T03:20:13.774Z,1.93
2023-03-06T03:22:41.549Z,3.33
2023-03-06T03:25:10.483Z,2.60
2023-03-06T03:27:38.263Z,2.67
2023-03-06T03:30:07.061Z,2.97
2023-03-06T03:32:34.800Z,3.60
2023-03-06T03:35:04.568Z,3.20
2023-03-06T03:37:32.268Z,3.57
2023-03-06T03:40:00.366Z,2.70
2023-03-06T03:42:30.474Z,2.60
2023-03-06T03:44:58.157Z,3.67
2023-03-06T03:47:25.916Z,3.40
2023-03-06T03:49:53.621Z,2.67
2023-03-06T03:52:22.680Z,2.90
2023-03-06T03:54:50.452Z,3.73
2023-03-06T03:57:18.149Z,4.13
2023-03-06T03:59:45.921Z,2.97
2023-03-06T04:02:13.628Z,2.70
2023-03-06T04:04:42.342Z,3.30
2023-03-06T04:07:10.530Z,3.23
2023-03-06T04:09:39.483Z,2.30
2023-03-06T04:12:08.400Z,3.00
2023-03-06T04:14:36.127Z,2.80
2023-03-06T04:17:03.863Z,2.67
2023-03-06T04:19:31.517Z,3.60
2023-03-06T04:21:59.129Z,2.77
2023-03-06T04:24:27.881Z,2.53
2023-03-06T04:26:56.845Z,3.00
2023-03-06T04:29:24.672Z,3.33
2023-03-06T04:31:52.330Z,2.37
2023-03-06T04:34:19.927Z,2.90
2023-03-06T04:36:47.644Z,3.00
2023-03-06T04:39:17.975Z,2.87
2023-03-06T04:41:47.381Z,3.33
2023-03-06T04:44:16.383Z,3.37
2023-03-06T04:46:44.055Z,3.33
2023-03-06T04:49:11.781Z,3.37
2023-03-06T04:51:39.477Z,2.90
2023-03-06T04:54:07.185Z,2.60
2023-03-06T04:56:35.357Z,3.03
2023-03-06T04:59:03.975Z,3.10
2023-03-06T05:01:32.944Z,3.23
2023-03-06T05:04:00.581Z,2.87
2023-03-06T05:06:28.382Z,2.60
2023-03-06T05:08:56.250Z,3.40
2023-03-06T05:11:23.961Z,3.33
2023-03-06T05:13:51.632Z,2.70
2023-03-06T05:16:19.515Z,3.40
2023-03-06T05:18:50.577Z,3.17
2023-03-06T05:21:18.386Z,4.83
2023-03-06T05:23:46.248Z,3.87
2023-03-06T05:26:15.994Z,4.70
2023-03-06T05:28:43.853Z,3.23
2023-03-06T05:31:11.517Z,4.00
2023-03-06T05:33:39.146Z,3.80
2023-03-06T05:36:10.499Z,3.30
2023-03-06T05:38:38.397Z,3.83
2023-03-06T05:41:06.549Z,3.93
2023-03-06T05:43:34.290Z,2.53
2023-03-06T05:46:04.744Z,4.57
2023-03-06T05:48:33.004Z,3.30
2023-03-06T05:51:01.970Z,2.70
2023-03-06T05:53:31.620Z,3.27
2023-03-06T05:56:00.716Z,2.77
2023-03-06T05:58:29.004Z,4.10
2023-03-06T06:00:56.936Z,4.37
2023-03-06T06:03:25.347Z,3.53
2023-03-06T06:05:53.688Z,3.40
2023-03-06T06:08:21.806Z,3.20
2023-03-06T06:10:53.314Z,3.90
2023-03-06T06:13:21.199Z,4.13
2023-03-06T06:15:49.426Z,3.83
2023-03-06T06:18:17.392Z,4.20
2023-03-06T06:20:45.438Z,4.13
2023-03-06T06:23:13.106Z,4.00
2023-03-06T06:25:40.913Z,4.43
2023-03-06T06:28:09.980Z,3.70
2023-03-06T06:30:38.243Z,3.67
2023-03-06T06:33:05.945Z,4.63
2023-03-06T06:35:36.833Z,3.90
2023-03-06T06:38:04.576Z,4.43
2023-03-06T06:40:32.313Z,4.60
2023-03-06T06:42:59.962Z,3.53
2023-03-06T06:45:29.010Z,3.37
2023-03-06T06:47:56.852Z,2.67
2023-03-06T06:50:24.802Z,3.40
2023-03-06T06:52:52.602Z,3.13
2023-03-06T06:55:20.302Z,3.00
2023-03-06T06:57:48.047Z,3.43
2023-03-06T07:00:17.907Z,3.07
2023-03-06T07:02:49.101Z,2.97
2023-03-06T07:05:17.075Z,4.33
2023-03-06T07:07:44.849Z,3.13
2023-03-06T07:10:15.586Z,3.10
2023-03-06T07:12:43.450Z,3.50
2023-03-06T07:15:14.389Z,3.00
2023-03-06T07:17:42.005Z,3.83
2023-03-06T07:20:12.559Z,2.83
2023-03-06T07:22:51.213Z,3.80
2023-03-06T07:25:24.672Z,3.60
2023-03-06T07:27:54.262Z,5.13
2023-03-06T07:30:22.637Z,3.00
2023-03-06T07:32:53.722Z,3.83
2023-03-06T07:35:23.590Z,2.80
2023-03-06T07:37:51.421Z,3.77
2023-03-06T07:40:20.671Z,3.93
2023-03-06T07:42:48.661Z,4.57
2023-03-06T07:45:16.726Z,3.20
2023-03-06T07:47:44.445Z,3.30
2023-03-06T07:50:12.989Z,3.50
2023-03-06T07:52:42.020Z,3.33
2023-03-06T07:55:11.095Z,2.87
2023-03-06T07:57:39.406Z,2.90
2023-03-06T08:00:10.456Z,3.17
2023-03-06T08:02:38.519Z,3.10
2023-03-06T08:05:08.591Z,3.20
2023-03-06T08:07:36.769Z,3.27
2023-03-06T08:10:06.947Z,3.20
2023-03-06T08:12:34.849Z,2.40
2023-03-06T08:15:02.595Z,2.67
2023-03-06T08:17:30.247Z,1.47
2023-03-06T08:19:57.964Z,2.00
2023-03-06T08:22:25.629Z,2.00
2023-03-06T08:24:55.524Z,1.80
2023-03-06T08:27:24.710Z,1.70
2023-03-06T08:29:52.391Z,2.10
2023-03-06T08:32:20.736Z,1.53
2023-03-06T08:34:48.792Z,1.67
2023-03-06T08:37:16.505Z,1.60
2023-03-06T08:39:44.168Z,1.93
2023-03-06T08:42:12.001Z,1.33
2023-03-06T08:44:41.029Z,1.33
2023-03-06T08:47:08.785Z,1.70
2023-03-06T08:49:38.394Z,1.63
2023-03-06T08:52:06.734Z,1.53
2023-03-06T08:54:35.843Z,2.13
2023-03-06T08:57:03.700Z,1.83
2023-03-06T08:59:31.374Z,1.93
2023-03-06T09:02:00.346Z,1.20
2023-03-06T09:04:31.037Z,1.90
2023-03-06T09:06:58.698Z,2.23
2023-03-06T09:09:26.356Z,1.70
2023-03-06T09:11:54.873Z,2.00
2023-03-06T09:14:22.679Z,2.77
2023-03-06T09:16:50.315Z,1.90
2023-03-06T09:19:19.256Z,1.97
2023-03-06T09:21:46.952Z,1.20
2023-03-06T09:24:15.845Z,2.63
2023-03-06T09:26:46.459Z,1.60
2023-03-06T09:29:16.216Z,1.60
2023-03-06T09:31:44.221Z,2.10
2023-03-06T09:34:11.890Z,1.20
2023-03-06T09:36:56.000Z,1.70
2023-03-06T09:39:25.754Z,1.60
2023-03-06T09:41:54.182Z,1.20
2023-03-06T09:44:25.969Z,0.73
2023-03-06T09:47:06.960Z,0.90
2023-03-06T09:49:43.008Z,1.23
2023-03-06T09:52:28.136Z,0.60
2023-03-06T09:55:00.005Z,1.17
2023-03-06T09:57:31.785Z,1.10
2023-03-06T10:00:04.660Z,0.73
2023-03-06T10:02:38.257Z,1.10
2023-03-06T10:05:13.328Z,1.00
2023-03-06T10:07:47.505Z,0.80
2023-03-06T10:10:21.575Z,0.70
2023-03-06T10:12:58.533Z,0.90
2023-03-06T10:15:30.772Z,1.00
2023-03-06T10:17:58.612Z,0.67
2023-03-06T10:20:28.619Z,0.90
2023-03-06T10:23:24.900Z,0.93
2023-03-06T10:26:00.300Z,0.97
2023-03-06T10:28:32.099Z,0.93
2023-03-06T10:31:07.836Z,0.80
2023-03-06T10:33:48.570Z,1.00
2023-03-06T10:36:18.293Z,1.00
2023-03-06T10:38:49.027Z,0.90
2023-03-06T10:41:26.306Z,1.57
2023-03-06T10:44:23.464Z,1.33
2023-03-06T10:46:53.163Z,2.10
2023-03-06T10:49:30.299Z,1.23
2023-03-06T10:52:02.344Z,1.10
2023-03-06T10:54:33.329Z,1.00
2023-03-06T10:57:20.317Z,0.60
2023-03-06T10:59:53.458Z,0.70
2023-03-06T11:02:28.541Z,0.60
2023-03-06T11:04:58.407Z,0.97
2023-03-06T11:07:30.264Z,0.57
2023-03-06T11:10:08.848Z,0.47
2023-03-06T11:12:38.202Z,0.70
2023-03-06T11:15:22.120Z,1.37
2023-03-06T11:17:53.543Z,0.93
2023-03-06T11:20:24.876Z,1.40
2023-03-06T11:22:56.463Z,1.10
2023-03-06T11:25:32.442Z,0.90
2023-03-06T11:28:04.418Z,1.20
2023-03-06T11:30:38.792Z,0.97
2023-03-06T11:33:26.211Z,0.80
2023-03-06T11:35:59.593Z,0.90
2023-03-06T11:38:39.768Z,0.97
2023-03-06T11:41:18.746Z,0.90
2023-03-06T11:43:55.863Z,1.20
2023-03-06T11:46:29.541Z,1.10
2023-03-06T11:49:03.717Z,0.83
2023-03-06T11:51:34.937Z,1.50
2023-03-06T11:54:03.766Z,1.40
2023-03-06T11:56:44.936Z,1.10
2023-03-06T11:59:35.359Z,0.97
2023-03-06T12:02:19.749Z,1.10
2023-03-06T12:04:57.096Z,1.57
2023-03-06T12:07:31.251Z,1.10
2023-03-06T12:10:11.130Z,1.53
2023-03-06T12:12:59.734Z,0.97
2023-03-06T12:15:43.083Z,1.10
2023-03-06T12:18:30.691Z,0.80
2023-03-06T12:21:07.950Z,0.63
2023-03-06T12:24:00.198Z,0.80
2023-03-06T12:26:43.070Z,1.17
2023-03-06T12:29:28.286Z,0.77
2023-03-06T12:32:14.151Z,1.10
2023-03-06T12:35:00.206Z,0.60
2023-03-06T12:37:41.163Z,0.87
2023-03-06T12:40:30.374Z,1.40
2023-03-06T12:43:12.668Z,1.10
2023-03-06T12:45:45.172Z,0.80
2023-03-06T12:48:19.739Z,0.70
2023-03-06T12:50:48.199Z,1.00
2023-03-06T12:53:24.956Z,1.00
2023-03-06T12:55:54.188Z,0.73
2023-03-06T12:58:48.316Z,0.97
2023-03-06T13:01:38.099Z,1.00
2023-03-06T13:04:24.719Z,0.90
2023-03-06T13:07:04.967Z,1.53
2023-03-06T13:09:41.960Z,1.00
2023-03-06T13:12:23.943Z,0.50
2023-03-06T13:14:55.250Z,1.30
2023-03-06T13:17:36.709Z,0.50
2023-03-06T13:20:29.466Z,0.60
2023-03-06T13:22:57.723Z,0.80
2023-03-06T13:25:51.545Z,1.10
2023-03-06T13:28:38.974Z,0.83
2023-03-06T13:31:10.629Z,0.63
2023-03-06T13:33:57.989Z,0.77
2023-03-06T13:36:32.302Z,0.63
2023-03-06T13:39:08.678Z,0.67
2023-03-06T13:41:57.969Z,0.93
2023-03-06T13:44:46.856Z,0.90
2023-03-06T13:47:42.656Z,1.10
2023-03-06T13:50:33.986Z,0.60
2023-03-06T13:53:29.538Z,0.73
2023-03-06T13:56:08.488Z,1.60
2023-03-06T13:58:51.426Z,1.10
2023-03-06T14:01:37.165Z,1.17
2023-03-06T14:04:27.097Z,0.60
2023-03-06T14:07:11.070Z,0.70
2023-03-06T14:09:43.490Z,0.80
2023-03-06T14:12:19.724Z,0.77
2023-03-06T14:14:51.675Z,0.77
2023-03-06T14:17:27.484Z,1.00
2023-03-06T14:19:58.219Z,1.30
2023-03-06T14:22:27.322Z,1.60
2023-03-06T14:24:59.700Z,1.33
2023-03-06T14:27:45.240Z,0.70
2023-03-06T14:30:20.938Z,0.60
2023-03-06T14:32:49.864Z,0.83
2023-03-06T14:35:23.385Z,0.93
2023-03-06T14:37:55.472Z,1.27
2023-03-06T14:40:30.173Z,0.93
2023-03-06T14:43:21.748Z,1.07
2023-03-06T14:45:51.710Z,0.90
2023-03-06T14:48:21.554Z,1.07
2023-03-06T14:50:52.476Z,0.77
2023-03-06T14:53:24.747Z,1.00
2023-03-06T14:55:55.808Z,0.70
2023-03-06T14:58:29.798Z,1.30
2023-03-06T15:01:01.229Z,0.97
2023-03-06T15:03:38.677Z,1.03
2023-03-06T15:06:07.763Z,0.80
2023-03-06T15:08:40.892Z,1.17
2023-03-06T15:11:08.860Z,1.30
2023-03-06T15:13:36.785Z,1.13
2023-03-06T15:16:06.908Z,1.20
2023-03-06T15:18:54.749Z,0.77
2023-03-06T15:21:23.662Z,0.80
2023-03-06T15:23:54.634Z,1.50
2023-03-06T15:26:29.124Z,1.27
2023-03-06T15:29:09.333Z,0.93
2023-03-06T15:31:39.302Z,1.17
2023-03-06T15:34:23.411Z,1.30
2023-03-06T15:36:57.320Z,0.80
2023-03-06T15:39:32.629Z,1.97
2023-03-06T15:42:03.248Z,2.83
2023-03-06T15:44:33.188Z,2.20
2023-03-06T15:47:08.676Z,1.20
2023-03-06T15:49:38.597Z,1.20
2023-03-06T15:52:06.811Z,1.17
2023-03-06T15:54:36.749Z,1.20
2023-03-06T15:57:08.534Z,1.13
2023-03-06T15:59:42.769Z,1.30
2023-03-06T16:02:17.354Z,1.70
2023-03-06T16:04:45.982Z,1.57
2023-03-06T16:07:13.936Z,1.40
2023-03-06T16:09:43.903Z,2.60
2023-03-06T16:12:17.443Z,1.70
2023-03-06T16:14:45.303Z,1.50
2023-03-06T16:17:13.309Z,1.20
2023-03-06T16:19:41.666Z,1.87
2023-03-06T16:22:09.716Z,2.97
2023-03-06T16:24:37.665Z,2.23
2023-03-06T16:27:08.293Z,2.70
2023-03-06T16:29:36.084Z,2.27
2023-03-06T16:32:04.497Z,3.33
2023-03-06T16:34:32.448Z,2.90
2023-03-06T16:37:00.347Z,3.87
2023-03-06T16:39:29.358Z,2.93
2023-03-06T16:41:57.339Z,2.97
2023-03-06T16:44:26.501Z,2.60
2023-03-06T16:46:54.451Z,2.53
2023-03-06T16:49:24.709Z,3.17
2023-03-06T16:51:53.921Z,3.00
2023-03-06T16:54:24.262Z,3.73
2023-03-06T16:56:51.952Z,2.97
2023-03-06T16:59:19.845Z,3.00
2023-03-06T17:01:51.620Z,2.03
2023-03-06T17:04:19.267Z,2.40
2023-03-06T17:06:46.873Z,3.63
2023-03-06T17:09:15.255Z,2.83
2023-03-06T17:11:46.678Z,3.13
2023-03-06T17:14:14.525Z,2.53
2023-03-06T17:16:42.710Z,2.10
2023-03-06T17:19:15.454Z,2.57
2023-03-06T17:21:43.461Z,1.90
2023-03-06T17:24:11.236Z,1.70
2023-03-06T17:26:39.101Z,1.97
2023-03-06T17:29:07.240Z,1.23
2023-03-06T17:31:34.974Z,2.00
2023-03-06T17:34:02.789Z,2.00
2023-03-06T17:36:32.486Z,1.73
2023-03-06T17:39:02.812Z,3.27
2023-03-06T17:41:32.648Z,2.43
2023-03-06T17:44:01.597Z,2.57
2023-03-06T17:46:29.739Z,3.47
2023-03-06T17:48:57.627Z,3.37
2023-03-06T17:51:25.363Z,3.13
2023-03-06T17:53:55.579Z,2.80
2023-03-06T17:56:23.239Z,3.70
2023-03-06T17:58:51.062Z,2.33
2023-03-06T18:01:20.703Z,2.73
2023-03-06T18:03:50.415Z,2.10
2023-03-06T18:06:20.633Z,2.23
2023-03-06T18:08:52.299Z,1.57
2023-03-06T18:11:22.918Z,1.73
2023-03-06T18:13:51.206Z,2.53
2023-03-06T18:16:20.957Z,1.93
2023-03-06T18:18:48.623Z,2.53
2023-03-06T18:21:17.289Z,2.40
2023-03-06T18:23:45.347Z,3.07
2023-03-06T18:26:14.870Z,3.67
2023-03-06T18:28:45.871Z,3.43
2023-03-06T18:31:17.096Z,4.03
2023-03-06T18:33:45.117Z,3.77
2023-03-06T18:36:12.796Z,3.20
2023-03-06T18:38:41.417Z,2.50
2023-03-06T18:41:09.448Z,3.00
2023-03-06T18:43:38.296Z,3.17
2023-03-06T18:46:08.341Z,2.90
2023-03-06T18:48:38.940Z,3.63
2023-03-06T18:51:08.638Z,3.97
2023-03-06T18:53:37.295Z,3.73
2023-03-06T18:56:06.325Z,3.63
2023-03-06T18:58:34.289Z,3.50
2023-03-06T19:01:08.471Z,3.20
2023-03-06T19:03:36.387Z,3.83
2023-03-06T19:06:06.808Z,4.00
2023-03-06T19:08:35.539Z,3.20
2023-03-06T19:11:08.033Z,5.13
2023-03-06T19:13:35.941Z,3.30
2023-03-06T19:16:04.104Z,4.10
2023-03-06T19:18:33.416Z,3.97
2023-03-06T19:21:11.305Z,4.37
2023-03-06T19:23:39.458Z,4.67
2023-03-06T19:26:07.750Z,4.60
2023-03-06T19:28:37.520Z,4.30
2023-03-06T19:31:10.518Z,4.70
2023-03-06T19:33:39.701Z,3.90
2023-03-06T19:36:09.971Z,4.17
2023-03-06T19:38:38.055Z,4.77
2023-03-06T19:41:09.256Z,3.70
2023-03-06T19:43:36.922Z,3.83
2023-03-06T19:46:04.963Z,3.70
2023-03-06T19:48:32.793Z,4.60
2023-03-06T19:51:05.725Z,3.77
2023-03-06T19:53:33.828Z,3.93
2023-03-06T19:56:06.590Z,4.40
2023-03-06T19:58:34.536Z,4.40
2023-03-06T20:01:07.121Z,3.83
2023-03-06T20:03:35.409Z,5.13
2023-03-06T20:06:09.146Z,5.60
2023-03-06T20:08:37.681Z,4.60
2023-03-06T20:11:06.167Z,4.60
2023-03-06T20:13:34.024Z,4.23
2023-03-06T20:16:04.815Z,5.43
2023-03-06T20:18:32.621Z,5.23
2023-03-06T20:21:00.995Z,4.20
2023-03-06T20:23:30.827Z,5.73
2023-03-06T20:26:02.718Z,4.60
2023-03-06T20:28:31.076Z,5.33
2023-03-06T20:30:59.150Z,5.10
2023-03-06T20:33:27.746Z,5.37
2023-03-06T20:35:55.454Z,4.93
2023-03-06T20:38:23.218Z,5.30
2023-03-06T20:40:54.625Z,5.07
2023-03-06T20:43:22.390Z,4.80
2023-03-06T20:45:57.260Z,5.07
2023-03-06T20:48:27.159Z,6.07
2023-03-06T20:51:02.169Z,6.07
2023-03-06T20:53:30.061Z,4.47
2023-03-06T20:55:59.389Z,6.40
2023-03-06T20:58:29.989Z,5.50
2023-03-06T21:00:58.152Z,5.43
2023-03-06T21:03:26.174Z,6.10
2023-03-06T21:05:54.239Z,6.03
2023-03-06T21:08:22.072Z,7.13
2023-03-06T21:10:51.045Z,6.60
2023-03-06T21:13:20.190Z,5.73
2023-03-06T21:15:47.872Z,6.07
2023-03-06T21:18:15.718Z,5.53
2023-03-06T21:20:44.194Z,5.00
2023-03-06T21:23:12.016Z,7.10
2023-03-06T21:25:48.551Z,6.83
2023-03-06T21:28:17.250Z,7.27
2023-03-06T21:30:46.875Z,7.07
2023-03-06T21:33:16.008Z,7.10
2023-03-06T21:35:45.704Z,6.57
2023-03-06T21:38:14.599Z,7.07
2023-03-06T21:40:45.456Z,6.10
2023-03-06T21:43:13.303Z,5.03
2023-03-06T21:45:46.153Z,4.40
2023-03-06T21:48:14.064Z,6.73
2023-03-06T21:50:45.094Z,7.20
2023-03-06T21:53:12.765Z,6.93
2023-03-06T21:55:41.331Z,7.60
2023-03-06T21:58:09.341Z,8.67
2023-03-06T22:00:39.366Z,8.00
2023-03-06T22:03:08.466Z,8.57
2023-03-06T22:05:36.072Z,7.93
2023-03-06T22:08:04.145Z,9.90
2023-03-06T22:10:34.581Z,9.40
2023-03-06T22:13:02.315Z,8.33
2023-03-06T22:15:30.141Z,9.50
2023-03-06T22:17:58.250Z,10.23
2023-03-06T22:20:27.873Z,10.50
2023-03-06T22:22:55.852Z,10.37
2023-03-06T22:25:23.907Z,9.77
2023-03-06T22:27:52.577Z,10.63
2023-03-06T22:30:20.529Z,11.67
2023-03-06T22:32:50.417Z,11.77
2023-03-06T22:35:18.178Z,10.90
2023-03-06T22:37:49.285Z,10.73
2023-03-06T22:40:18.210Z,10.30
2023-03-06T22:42:46.656Z,12.70
2023-03-06T22:45:14.784Z,10.90
2023-03-06T22:47:42.448Z,11.23
2023-03-06T22:50:11.546Z,11.93
2023-03-06T22:52:39.587Z,10.20
2023-03-06T22:55:09.706Z,10.10
2023-03-06T22:57:37.323Z,12.70
2023-03-06T23:00:06.895Z,7.97
2023-03-06T23:02:35.943Z,9.03
2023-03-06T23:05:03.711Z,10.33
2023-03-06T23:07:31.687Z,8.83
2023-03-06T23:09:59.600Z,12.93
2023-03-06T23:12:28.629Z,12.17
2023-03-06T23:14:56.342Z,7.37
2023-03-06T23:17:24.145Z,9.37
2023-03-06T23:19:54.556Z,9.80
2023-03-06T23:22:24.402Z,10.73
2023-03-06T23:24:52.034Z,11.27
2023-03-06T23:27:20.258Z,7.53
2023-03-06T23:29:55.252Z,10.83
2023-03-06T23:32:23.001Z,5.60
2023-03-06T23:34:50.699Z,7.87
2023-03-06T23:37:18.376Z,12.00
2023-03-06T23:39:45.969Z,7.40
2023-03-06T23:42:13.682Z,7.97
2023-03-06T23:44:43.775Z,11.80
2023-03-06T23:47:12.762Z,11.03
2023-03-06T23:49:40.885Z,8.97
2023-03-06T23:52:08.920Z,7.77
2023-03-06T23:54:36.601Z,10.10
2023-03-06T23:57:04.843Z,10.60
2023-03-06T23:59:33.719Z,11.17
